Time;durP1;ratioP1;P1;durP2;ratioP2;P2;SDS_P1;SDS_P2;PMS_P1;PMS_P2;Temp;Humidity;BMP_temperature;BMP_pressure;BME280_temperature;BME280_humidity;BME280_pressure;Samples;Min_cycle;Max_cycle;Signal;HPM_P1;HPM_P2
2022/07/22 00:01:03;;;;;;;8.52;5.45;;;17.00;15.70;;;;;;5117966;27;34411;-78
2022/07/22 00:03:29;;;;;;;10.93;6.43;;;16.90;15.70;;;;;;5117553;27;33766;-78
2022/07/22 00:05:55;;;;;;;8.20;5.43;;;16.90;15.80;;;;;;5076181;27;34605;-78
2022/07/22 00:08:21;;;;;;;6.97;6.13;;;16.80;15.70;;;;;;5119190;27;34031;-78
2022/07/22 00:10:47;;;;;;;6.22;5.18;;;16.90;15.80;;;;;;5118084;27;36504;-78
2022/07/22 00:13:13;;;;;;;6.32;5.72;;;16.80;15.70;;;;;;5093464;27;34097;-79
2022/07/22 00:15:39;;;;;;;8.23;6.13;;;16.80;15.70;;;;;;5119188;27;34125;-78
2022/07/22 00:18:05;;;;;;;8.52;6.18;;;16.70;15.80;;;;;;5099956;27;34204;-79
2022/07/22 00:20:31;;;;;;;6.53;5.80;;;16.70;15.90;;;;;;5098446;28;35805;-78
2022/07/22 00:22:57;;;;;;;9.50;6.40;;;16.70;16.00;;;;;;5098685;27;34174;-79
2022/07/22 00:25:23;;;;;;;8.50;6.03;;;16.70;16.00;;;;;;5103408;27;33696;-79
2022/07/22 00:27:49;;;;;;;7.50;5.88;;;16.60;16.00;;;;;;5093942;27;34310;-78
2022/07/22 00:30:15;;;;;;;9.70;6.57;;;16.60;16.10;;;;;;5047902;27;34224;-78
2022/07/22 00:32:41;;;;;;;9.00;6.35;;;16.70;16.30;;;;;;5107630;27;34269;-78
2022/07/22 00:35:07;;;;;;;8.32;6.03;;;16.70;16.30;;;;;;5098897;27;34341;-79
2022/07/22 00:37:34;;;;;;;9.50;6.03;;;16.60;16.20;;;;;;5133752;27;33910;-79
2022/07/22 00:40:00;;;;;;;8.02;6.15;;;16.60;16.20;;;;;;5138520;27;35968;-79
2022/07/22 00:42:26;;;;;;;9.60;5.50;;;16.60;16.30;;;;;;5154720;27;34342;-79
2022/07/22 00:44:52;;;;;;;7.35;6.13;;;16.50;16.30;;;;;;5125626;27;34048;-79
2022/07/22 00:47:18;;;;;;;5.78;5.20;;;16.50;16.30;;;;;;5156493;27;34501;-79
2022/07/22 00:49:44;;;;;;;9.25;6.38;;;16.60;16.50;;;;;;5039966;28;34924;-79
2022/07/22 00:52:10;;;;;;;8.70;6.13;;;16.60;16.40;;;;;;5064429;27;34329;-79
2022/07/22 00:54:37;;;;;;;7.05;6.18;;;16.60;16.40;;;;;;5137696;27;34394;-79
2022/07/22 00:57:03;;;;;;;8.00;6.30;;;16.70;16.50;;;;;;5101024;28;34136;-79
2022/07/22 00:59:29;;;;;;;8.60;5.97;;;16.70;16.50;;;;;;5116346;27;35749;-79
2022/07/22 01:01:55;;;;;;;10.15;6.47;;;16.80;16.50;;;;;;5136025;27;34039;-79
2022/07/22 01:04:21;;;;;;;11.23;7.00;;;16.80;16.50;;;;;;5143353;27;34200;-78
2022/07/22 01:06:48;;;;;;;7.32;5.88;;;16.80;16.50;;;;;;5158189;27;34478;-79
2022/07/22 01:09:14;;;;;;;9.00;6.28;;;16.90;16.50;;;;;;5055517;28;34336;-79
2022/07/22 01:11:41;;;;;;;8.00;6.22;;;16.90;16.50;;;;;;5050514;28;34234;-79
2022/07/22 01:14:07;;;;;;;8.65;6.78;;;16.90;16.50;;;;;;5048446;28;34228;-79
2022/07/22 01:16:33;;;;;;;11.02;7.35;;;17.00;16.50;;;;;;5120985;27;34265;-78
2022/07/22 01:18:59;;;;;;;7.95;6.65;;;17.00;16.50;;;;;;5153734;27;35892;-79
2022/07/22 01:21:25;;;;;;;9.18;7.00;;;17.00;16.50;;;;;;5140070;27;34576;-78
2022/07/22 01:23:51;;;;;;;8.82;6.55;;;17.10;16.60;;;;;;5103052;27;35689;-79
2022/07/22 01:26:17;;;;;;;9.85;7.10;;;17.10;16.60;;;;;;5117943;27;34191;-79
2022/07/22 01:28:44;;;;;;;10.32;6.32;;;17.10;16.60;;;;;;5113207;27;35968;-79
2022/07/22 01:31:10;;;;;;;12.13;6.90;;;17.10;16.60;;;;;;5129771;27;34142;-79
2022/07/22 01:33:36;;;;;;;7.88;6.40;;;17.20;16.60;;;;;;5040932;28;34289;-79
2022/07/22 01:36:03;;;;;;;10.98;7.28;;;17.20;16.70;;;;;;5152720;27;34552;-79
2022/07/22 01:38:29;;;;;;;9.23;6.72;;;17.20;16.70;;;;;;5117544;27;35740;-79
2022/07/22 01:40:55;;;;;;;10.73;7.18;;;17.20;16.70;;;;;;5049543;28;34099;-79
2022/07/22 01:43:22;;;;;;;10.90;7.07;;;17.20;16.70;;;;;;5046990;28;34704;-79
2022/07/22 01:45:50;;;;;;;8.52;6.32;;;17.30;16.70;;;;;;5154282;27;34024;-78
2022/07/22 01:48:17;;;;;;;12.13;6.85;;;17.20;16.80;;;;;;5117311;27;34333;-78
2022/07/22 01:50:44;;;;;;;12.98;7.63;;;17.30;16.80;;;;;;5149987;27;34214;-78
2022/07/22 01:53:12;;;;;;;10.45;7.45;;;17.30;16.80;;;;;;5150704;27;34160;-78
2022/07/22 01:55:38;;;;;;;8.52;6.72;;;17.30;16.90;;;;;;5083064;28;33953;-79
2022/07/22 01:58:05;;;;;;;8.73;6.93;;;17.30;16.80;;;;;;5099411;27;36639;-79
2022/07/22 02:00:32;;;;;;;10.05;6.72;;;17.30;16.80;;;;;;5136729;27;34250;-78
2022/07/22 02:02:58;;;;;;;11.32;7.18;;;17.30;16.80;;;;;;5133899;27;33811;-78
2022/07/22 02:05:43;;;;;;;10.75;7.22;;;17.30;16.80;;;;;;5029900;28;33853;-79
2022/07/22 02:08:10;;;;;;;15.23;7.38;;;17.40;18.60;;;;;;5062893;27;35543;-78
2022/07/22 02:10:37;;;;;;;10.95;7.32;;;17.30;16.90;;;;;;5032654;28;34082;-78
2022/07/22 02:13:03;;;;;;;9.48;6.90;;;17.30;16.90;;;;;;5134145;27;33790;-78
2022/07/22 02:15:30;;;;;;;9.13;6.43;;;17.40;16.90;;;;;;5108441;27;34105;-78
2022/07/22 02:17:56;;;;;;;8.95;6.78;;;17.40;16.90;;;;;;5154320;27;35647;-79
2022/07/22 02:20:23;;;;;;;10.88;7.78;;;17.30;16.90;;;;;;5151161;27;34058;-79
2022/07/22 02:22:49;;;;;;;8.98;7.03;;;17.40;17.00;;;;;;5108586;27;34083;-79
2022/07/22 02:25:15;;;;;;;10.38;7.75;;;17.40;17.00;;;;;;5102098;27;34397;-78
2022/07/22 02:27:41;;;;;;;11.13;7.32;;;17.40;17.10;;;;;;5110269;27;36355;-78
2022/07/22 02:30:09;;;;;;;12.48;7.22;;;17.40;17.10;;;;;;5093925;27;34476;-78
2022/07/22 02:32:35;;;;;;;14.77;7.45;;;17.40;17.20;;;;;;5100581;28;34333;-78
2022/07/22 02:35:02;;;;;;;11.52;7.05;;;17.40;17.10;;;;;;5147399;27;34246;-78
2022/07/22 02:37:28;;;;;;;9.00;7.45;;;17.40;17.20;;;;;;5138192;27;35918;-78
2022/07/22 02:39:54;;;;;;;12.43;7.07;;;17.40;17.10;;;;;;5044160;28;33982;-79
2022/07/22 02:42:19;;;;;;;11.38;6.80;;;17.40;17.70;;;;;;5135350;27;34064;-78
2022/07/22 02:44:45;;;;;;;8.63;6.65;;;17.40;17.20;;;;;;5098131;27;34068;-78
2022/07/22 02:47:11;;;;;;;11.73;6.57;;;17.40;17.20;;;;;;5133243;27;35809;-78
2022/07/22 02:49:37;;;;;;;9.50;6.65;;;17.40;17.20;;;;;;5030089;28;33674;-79
2022/07/22 02:52:03;;;;;;;9.45;6.45;;;17.30;17.30;;;;;;5113661;27;33802;-78
2022/07/22 02:54:29;;;;;;;8.40;6.43;;;17.30;17.30;;;;;;5120381;27;34362;-78
2022/07/22 02:56:55;;;;;;;9.60;6.55;;;17.20;17.30;;;;;;5125401;27;35816;-79
2022/07/22 02:59:21;;;;;;;7.63;5.82;;;17.10;17.40;;;;;;5136699;27;34133;-79
2022/07/22 03:01:47;;;;;;;9.18;6.13;;;17.10;17.50;;;;;;5146966;27;34311;-79
2022/07/22 03:04:13;;;;;;;8.23;6.30;;;17.00;17.50;;;;;;5105627;27;34110;-79
2022/07/22 03:06:39;;;;;;;9.98;6.25;;;16.90;17.50;;;;;;5135410;27;34453;-78
2022/07/22 03:09:05;;;;;;;9.70;6.50;;;16.90;17.50;;;;;;5114132;27;34327;-79
2022/07/22 03:11:31;;;;;;;7.82;5.88;;;16.80;17.40;;;;;;5134840;27;34085;-78
2022/07/22 03:13:57;;;;;;;7.85;5.70;;;16.80;17.40;;;;;;5104412;27;34125;-78
2022/07/22 03:16:23;;;;;;;7.60;4.90;;;16.80;17.40;;;;;;5100896;27;35907;-79
2022/07/22 03:18:49;;;;;;;6.80;5.10;;;16.70;17.40;;;;;;5132576;27;34233;-78
2022/07/22 03:21:15;;;;;;;7.32;5.30;;;16.60;17.40;;;;;;5119008;27;34172;-79
2022/07/22 03:23:41;;;;;;;8.68;5.18;;;16.60;17.50;;;;;;5118719;27;34320;-78
2022/07/22 03:26:07;;;;;;;7.53;5.47;;;16.60;17.50;;;;;;5136370;27;36715;-78
2022/07/22 03:28:33;;;;;;;7.40;4.95;;;16.50;17.80;;;;;;5144458;27;33758;-79
2022/07/22 03:30:59;;;;;;;7.70;5.10;;;16.40;17.60;;;;;;5038283;28;34298;-79
2022/07/22 03:33:25;;;;;;;6.63;4.70;;;16.40;17.60;;;;;;5146390;27;34088;-79
2022/07/22 03:35:51;;;;;;;5.60;4.72;;;16.30;17.60;;;;;;5030161;27;35362;-78
2022/07/22 03:38:17;;;;;;;7.88;4.65;;;16.30;17.60;;;;;;5092998;27;34114;-79
2022/07/22 03:40:43;;;;;;;7.20;4.30;;;16.30;17.60;;;;;;5137320;27;34229;-79
2022/07/22 03:43:09;;;;;;;5.78;4.10;;;16.20;17.60;;;;;;5152592;27;34218;-78
2022/07/22 03:45:35;;;;;;;6.15;4.68;;;16.20;17.60;;;;;;5126190;27;35925;-78
2022/07/22 03:48:01;;;;;;;5.68;3.85;;;16.10;17.60;;;;;;5113780;27;34198;-79
2022/07/22 03:50:27;;;;;;;5.18;4.10;;;16.10;17.50;;;;;;5103121;27;34302;-79
2022/07/22 03:52:53;;;;;;;6.00;4.45;;;16.00;17.50;;;;;;5113363;27;34600;-79
2022/07/22 03:55:19;;;;;;;8.45;4.80;;;16.00;17.60;;;;;;5138893;27;35990;-78
2022/07/22 03:57:45;;;;;;;6.63;3.97;;;15.90;17.60;;;;;;5111194;27;34597;-78
2022/07/22 04:00:11;;;;;;;8.02;4.30;;;15.90;17.60;;;;;;5110001;27;34204;-79
2022/07/22 04:02:37;;;;;;;6.15;4.03;;;15.90;17.60;;;;;;5152445;27;34057;-78
2022/07/22 04:05:03;;;;;;;7.15;3.90;;;15.80;17.50;;;;;;5152206;27;36309;-78
2022/07/22 04:07:29;;;;;;;6.38;3.75;;;15.80;17.50;;;;;;5151261;27;34213;-78
2022/07/22 04:10:04;;;;;;;7.38;4.28;;;15.80;17.50;;;;;;5098171;27;34276;-78
2022/07/22 04:12:39;;;;;;;4.85;3.92;;;15.80;17.50;;;;;;5116526;27;34168;-79
2022/07/22 04:15:07;;;;;;;6.53;3.70;;;15.80;18.10;;;;;;5114072;27;35906;-78
2022/07/22 04:17:33;;;;;;;6.60;4.07;;;15.70;17.60;;;;;;5131402;27;34358;-79
2022/07/22 04:20:00;;;;;;;5.70;3.92;;;15.70;17.60;;;;;;5097237;27;33812;-78
2022/07/22 04:22:27;;;;;;;7.57;4.50;;;15.70;17.70;;;;;;5131607;27;34314;-78
2022/07/22 04:24:53;;;;;;;5.85;3.95;;;15.70;17.70;;;;;;5112926;27;36027;-78
2022/07/22 04:27:19;;;;;;;4.90;4.00;;;15.80;17.70;;;;;;5045920;28;33910;-79
2022/07/22 04:29:45;;;;;;;4.35;3.67;;;15.80;17.70;;;;;;5115855;27;34229;-78
2022/07/22 04:32:11;;;;;;;6.28;3.95;;;15.70;17.70;;;;;;5112178;27;34478;-78
2022/07/22 04:34:37;;;;;;;4.70;3.50;;;15.70;17.80;;;;;;5127657;27;36781;-78
2022/07/22 04:37:03;;;;;;;7.25;4.35;;;15.70;17.70;;;;;;5130304;27;33830;-78
2022/07/22 04:39:29;;;;;;;6.15;4.15;;;15.80;17.70;;;;;;5037340;27;33760;-78
2022/07/22 04:41:55;;;;;;;5.35;4.13;;;15.80;17.80;;;;;;5102670;27;34374;-78
2022/07/22 04:44:21;;;;;;;5.32;3.88;;;15.80;17.80;;;;;;5133483;27;34253;-78
2022/07/22 04:46:47;;;;;;;6.22;4.55;;;15.80;17.70;;;;;;5114283;27;34421;-78
2022/07/22 04:49:14;;;;;;;6.35;4.43;;;15.80;17.70;;;;;;5076653;27;35294;-78
2022/07/22 04:51:40;;;;;;;4.00;3.33;;;15.90;17.80;;;;;;5127088;27;34400;-79
2022/07/22 04:54:06;;;;;;;5.50;3.90;;;15.90;17.70;;;;;;5085639;28;35880;-78
2022/07/22 04:56:32;;;;;;;5.38;3.72;;;15.90;17.80;;;;;;5026442;28;34176;-79
2022/07/22 04:58:58;;;;;;;5.72;4.10;;;16.00;17.80;;;;;;5114834;27;34144;-78
2022/07/22 05:01:24;;;;;;;5.90;4.20;;;16.00;17.70;;;;;;5115143;27;34085;-78
2022/07/22 05:03:51;;;;;;;6.53;4.32;;;16.10;17.70;;;;;;5121087;27;36942;-78
2022/07/22 05:06:18;;;;;;;5.25;4.07;;;16.10;17.70;;;;;;5147439;27;34070;-78
2022/07/22 05:08:44;;;;;;;3.88;3.50;;;16.20;17.70;;;;;;5116727;27;34213;-78
2022/07/22 05:11:10;;;;;;;8.00;4.07;;;16.20;17.70;;;;;;5151473;27;34198;-78
2022/07/22 05:13:37;;;;;;;4.85;4.35;;;16.20;17.70;;;;;;5042477;28;34348;-78
2022/07/22 05:16:04;;;;;;;4.63;4.10;;;16.30;17.70;;;;;;5026177;28;34393;-78
2022/07/22 05:18:30;;;;;;;4.20;3.53;;;16.40;17.70;;;;;;5058386;27;34138;-78
2022/07/22 05:20:56;;;;;;;5.07;4.13;;;16.50;17.70;;;;;;5128428;27;34058;-78
2022/07/22 05:23:22;;;;;;;6.25;4.28;;;16.70;17.60;;;;;;5129883;27;36051;-78
2022/07/22 05:25:48;;;;;;;6.18;4.18;;;17.20;17.20;;;;;;5132231;27;34416;-78
2022/07/22 05:28:17;;;;;;;5.03;4.13;;;17.90;16.50;;;;;;5089651;27;34420;-79
2022/07/22 05:30:43;;;;;;;5.05;3.88;;;18.70;16.00;;;;;;5044321;27;34393;-78
2022/07/22 05:33:09;;;;;;;5.05;3.45;;;19.50;14.50;;;;;;5074120;27;34549;-78
2022/07/22 05:35:35;;;;;;;8.50;3.92;;;20.40;13.50;;;;;;5043071;28;34162;-78
2022/07/22 05:38:01;;;;;;;4.82;3.20;;;21.10;12.50;;;;;;5099069;27;33746;-78
2022/07/22 05:40:28;;;;;;;4.40;3.30;;;21.80;11.60;;;;;;5116492;27;34149;-79
2022/07/22 05:42:54;;;;;;;3.05;2.65;;;22.50;10.90;;;;;;5070426;27;35535;-78
2022/07/22 05:45:20;;;;;;;4.05;3.22;;;23.20;10.00;;;;;;5132175;27;33827;-78
2022/07/22 05:47:46;;;;;;;3.50;2.88;;;23.80;9.30;;;;;;5147358;27;34074;-78
2022/07/22 05:50:12;;;;;;;3.58;2.92;;;24.30;8.50;;;;;;5094428;27;34176;-79
2022/07/22 05:52:39;;;;;;;3.00;2.70;;;24.70;7.90;;;;;;5031069;28;34970;-79
2022/07/22 05:55:07;;;;;;;4.18;2.90;;;25.10;7.10;;;;;;5136469;27;34407;-78
2022/07/22 05:57:33;;;;;;;4.40;2.60;;;25.50;6.30;;;;;;5117372;27;34444;-79
2022/07/22 05:59:59;;;;;;;4.65;2.70;;;25.80;5.80;;;;;;5073893;27;34368;-79
2022/07/22 06:02:24;;;;;;;4.05;3.05;;;26.30;5.40;;;;;;5117416;27;35129;-79
2022/07/22 06:04:50;;;;;;;2.67;2.40;;;26.60;4.80;;;;;;5151515;27;33709;-79
2022/07/22 06:07:17;;;;;;;2.85;2.40;;;27.00;4.40;;;;;;5110619;27;34229;-79
2022/07/22 06:09:43;;;;;;;4.88;2.60;;;27.20;3.80;;;;;;5096879;27;34258;-78
2022/07/22 06:12:10;;;;;;;4.05;2.40;;;27.50;3.00;;;;;;5150013;27;35742;-79
2022/07/22 06:14:36;;;;;;;3.22;2.55;;;27.70;2.70;;;;;;5098413;27;34005;-79
2022/07/22 06:17:03;;;;;;;2.97;2.70;;;28.00;2.60;;;;;;5134212;27;34161;-79
2022/07/22 06:19:29;;;;;;;2.58;2.38;;;28.20;2.10;;;;;;5127817;27;34547;-79
2022/07/22 06:21:56;;;;;;;2.72;2.35;;;28.50;1.60;;;;;;5134448;27;36038;-79
2022/07/22 06:24:23;;;;;;;3.13;2.72;;;28.70;1.00;;;;;;5091954;27;34626;-79
2022/07/22 06:26:49;;;;;;;2.63;2.00;;;28.90;1.00;;;;;;5108853;27;33756;-79
2022/07/22 06:29:15;;;;;;;3.28;2.63;;;29.00;1.00;;;;;;5115078;27;34125;-79
2022/07/22 06:31:41;;;;;;;2.88;2.53;;;29.00;1.00;;;;;;5116368;27;36015;-78
2022/07/22 06:34:08;;;;;;;3.13;2.60;;;29.20;1.00;;;;;;5115766;27;34488;-79
2022/07/22 06:36:34;;;;;;;4.18;2.65;;;29.50;1.00;;;;;;5085088;27;34315;-78
2022/07/22 06:39:00;;;;;;;2.45;2.25;;;29.60;1.00;;;;;;5071858;27;34508;-78
2022/07/22 06:41:26;;;;;;;2.90;2.50;;;29.60;1.00;;;;;;5164848;27;35661;-78
2022/07/22 06:43:52;;;;;;;3.22;2.42;;;29.60;1.00;;;;;;5135401;27;35972;-78
2022/07/22 06:46:18;;;;;;;2.65;2.38;;;29.60;1.00;;;;;;5126694;27;34526;-78
2022/07/22 06:48:44;;;;;;;3.83;3.00;;;29.60;1.00;;;;;;5121228;27;34435;-78
2022/07/22 06:51:11;;;;;;;3.53;2.88;;;29.70;1.00;;;;;;5115914;27;36365;-78
2022/07/22 06:53:37;;;;;;;2.80;2.45;;;29.70;1.00;;;;;;5116003;27;34187;-78
2022/07/22 06:56:06;;;;;;;2.95;2.63;;;29.70;1.00;;;;;;5151036;27;34346;-78
2022/07/22 06:58:32;;;;;;;4.93;3.22;;;29.80;1.00;;;;;;5127013;27;34368;-79
2022/07/22 07:00:58;;;;;;;4.00;3.03;;;29.60;1.00;;;;;;5136484;27;34507;-79
2022/07/22 07:03:25;;;;;;;4.05;3.10;;;29.60;1.00;;;;;;5119500;27;34354;-79
2022/07/22 07:05:54;;;;;;;4.13;2.50;;;29.60;1.00;;;;;;5129486;27;34280;-78
2022/07/22 07:08:21;;;;;;;5.28;2.97;;;29.70;1.00;;;;;;5138175;27;34397;-78
2022/07/22 07:10:47;;;;;;;4.13;2.67;;;29.60;1.00;;;;;;5112926;27;36321;-78
2022/07/22 07:13:13;;;;;;;3.78;2.80;;;29.70;1.00;;;;;;5112818;27;34302;-78
2022/07/22 07:15:39;;;;;;;2.92;2.58;;;29.70;1.00;;;;;;5133935;27;34242;-77
2022/07/22 07:18:05;;;;;;;3.83;2.70;;;29.40;1.00;;;;;;5115383;27;34482;-78
2022/07/22 07:20:31;;;;;;;3.58;2.60;;;29.30;1.00;;;;;;5106956;27;35676;-78
2022/07/22 07:23:01;;;;;;;3.78;2.97;;;29.40;1.00;;;;;;5135161;27;34294;-77
2022/07/22 07:25:27;;;;;;;3.55;2.63;;;29.60;1.00;;;;;;5126246;27;34877;-79
2022/07/22 07:27:54;;;;;;;4.72;2.90;;;29.60;1.00;;;;;;5134400;27;34557;-77
2022/07/22 07:30:21;;;;;;;4.30;2.95;;;29.60;1.00;;;;;;5129773;27;35788;-79
2022/07/22 07:32:47;;;;;;;3.00;2.70;;;29.50;1.00;;;;;;5162600;27;34453;-78
2022/07/22 07:35:13;;;;;;;5.55;2.92;;;29.30;1.00;;;;;;5158682;27;34146;-78
2022/07/22 07:37:39;;;;;;;4.00;2.80;;;29.30;1.00;;;;;;5153899;27;34353;-78
2022/07/22 07:40:06;;;;;;;5.65;3.05;;;29.40;1.00;;;;;;5145969;27;35835;-77
2022/07/22 07:42:32;;;;;;;5.13;2.42;;;29.40;1.00;;;;;;5129323;27;34408;-78
2022/07/22 07:44:58;;;;;;;4.47;3.13;;;29.30;1.00;;;;;;5115810;27;34168;-77
2022/07/22 07:47:24;;;;;;;3.50;2.90;;;29.10;1.00;;;;;;5111350;27;34564;-77
2022/07/22 07:49:50;;;;;;;3.30;2.80;;;29.00;1.00;;;;;;5119254;27;35404;-78
2022/07/22 07:52:17;;;;;;;2.95;2.65;;;29.20;1.00;;;;;;5139313;27;34128;-77
2022/07/22 07:54:44;;;;;;;4.40;2.58;;;29.50;1.00;;;;;;5125484;27;34033;-78
2022/07/22 07:57:11;;;;;;;3.53;2.80;;;29.60;1.00;;;;;;5151638;27;34283;-79
2022/07/22 07:59:39;;;;;;;3.85;2.55;;;29.80;1.00;;;;;;5110854;27;36535;-78
2022/07/22 08:02:05;;;;;;;4.82;3.10;;;30.00;1.00;;;;;;5142357;27;34359;-78
2022/07/22 08:04:31;;;;;;;2.97;2.40;;;30.00;1.00;;;;;;5153004;27;34290;-78
2022/07/22 08:06:58;;;;;;;3.45;2.53;;;29.80;1.00;;;;;;5123760;27;34519;-78
2022/07/22 08:09:24;;;;;;;4.00;2.80;;;29.80;1.00;;;;;;5155388;27;36905;-78
2022/07/22 08:11:51;;;;;;;3.20;2.85;;;29.90;1.00;;;;;;5136272;27;34912;-78
2022/07/22 08:14:17;;;;;;;5.43;2.42;;;30.10;1.00;;;;;;5162227;27;35433;-79
2022/07/22 08:16:43;;;;;;;3.25;2.95;;;30.30;1.00;;;;;;5126663;27;34182;-78
2022/07/22 08:19:10;;;;;;;3.53;2.70;;;29.70;1.00;;;;;;5138244;27;36100;-79
2022/07/22 08:21:36;;;;;;;3.10;2.55;;;29.60;1.00;;;;;;5099409;27;34222;-79
2022/07/22 08:24:02;;;;;;;4.30;2.67;;;29.80;1.00;;;;;;5154085;27;34145;-77
2022/07/22 08:26:28;;;;;;;3.97;2.42;;;29.90;1.00;;;;;;5113954;27;34230;-78
2022/07/22 08:28:55;;;;;;;4.00;2.53;;;30.10;1.00;;;;;;5123894;27;34168;-78
2022/07/22 08:31:21;;;;;;;2.80;2.45;;;30.10;1.00;;;;;;5161345;27;34174;-78
2022/07/22 08:33:47;;;;;;;3.55;2.80;;;30.20;1.00;;;;;;5136924;27;34125;-77
2022/07/22 08:36:13;;;;;;;4.25;2.70;;;30.30;1.00;;;;;;5156482;27;34274;-77
2022/07/22 08:38:41;;;;;;;4.53;2.70;;;30.40;1.00;;;;;;5125291;27;35552;-79
2022/07/22 08:41:08;;;;;;;3.33;2.55;;;30.60;1.00;;;;;;5126193;27;34360;-80
2022/07/22 08:43:40;;;;;;;3.05;2.75;;;30.60;1.00;;;;;;5109508;27;34587;-78
2022/07/22 08:46:06;;;;;;;12.23;2.60;;;30.60;1.00;;;;;;5142844;27;34108;-79
2022/07/22 08:48:32;;;;;;;9.02;3.15;;;30.70;1.00;;;;;;5120292;27;35980;-77
2022/07/22 08:50:58;;;;;;;3.67;2.75;;;30.60;1.00;;;;;;5151714;27;34274;-78
2022/07/22 08:53:27;;;;;;;2.70;2.42;;;30.60;1.00;;;;;;5162716;27;33677;-77
2022/07/22 08:55:53;;;;;;;3.63;2.88;;;30.10;1.00;;;;;;5141301;27;34153;-77
2022/07/22 08:58:19;;;;;;;4.38;2.80;;;29.90;1.00;;;;;;5122223;27;34279;-77
2022/07/22 09:00:45;;;;;;;3.42;2.72;;;30.00;1.00;;;;;;5109896;27;34247;-77
2022/07/22 09:03:27;;;;;;;4.15;2.50;;;30.20;1.00;;;;;;5158658;27;34322;-78
2022/07/22 09:05:54;;;;;;;3.20;2.53;;;30.50;1.00;;;;;;5153192;27;34146;-78
2022/07/22 09:08:21;;;;;;;2.75;2.25;;;30.60;1.00;;;;;;5125363;27;36985;-77
2022/07/22 09:10:48;;;;;;;3.72;2.30;;;30.60;1.00;;;;;;5159307;27;34377;-77
2022/07/22 09:13:18;;;;;;;5.10;2.60;;;30.70;1.00;;;;;;5119772;27;34160;-78
2022/07/22 09:15:50;;;;;;;5.10;2.60;;;30.90;1.00;;;;;;5131700;27;34530;-76
2022/07/22 09:18:16;;;;;;;2.40;2.13;;;30.90;1.00;;;;;;5123269;27;36015;-77
2022/07/22 09:20:44;;;;;;;3.05;2.45;;;30.80;1.00;;;;;;5129228;27;34835;-77
2022/07/22 09:23:20;;;;;;;3.55;2.67;;;30.90;1.00;;;;;;5162664;27;34210;-77
2022/07/22 09:25:46;;;;;;;2.38;2.10;;;31.10;1.00;;;;;;5130587;27;34525;-78
2022/07/22 09:28:16;;;;;;;3.35;2.25;;;31.20;1.00;;;;;;5130894;27;35969;-77
2022/07/22 09:30:48;;;;;;;4.78;2.58;;;31.20;1.00;;;;;;5110280;27;35305;-77
2022/07/22 09:33:15;;;;;;;6.63;2.47;;;31.30;1.00;;;;;;5141011;27;34400;-76
2022/07/22 09:35:48;;;;;;;3.08;2.58;;;31.10;1.00;;;;;;5109930;27;34690;-78
2022/07/22 09:38:17;;;;;;;2.75;2.13;;;31.10;1.00;;;;;;5158890;27;35806;-77
2022/07/22 09:40:47;;;;;;;12.90;3.22;;;31.10;1.00;;;;;;5071719;27;34304;-77
2022/07/22 09:43:17;;;;;;;4.18;2.47;;;31.00;1.00;;;;;;5022150;27;34306;-77
2022/07/22 09:45:56;;;;;;;2.47;2.22;;;30.90;1.00;;;;;;5011266;28;34233;-79
2022/07/22 09:48:24;;;;;;;2.65;2.30;;;31.00;1.00;;;;;;5052956;27;35873;-78
2022/07/22 09:50:52;;;;;;;3.20;2.67;;;31.10;1.00;;;;;;5035160;27;34602;-77
2022/07/22 09:53:20;;;;;;;3.30;2.42;;;31.20;1.00;;;;;;5030520;27;34247;-77
2022/07/22 09:55:47;;;;;;;3.08;2.40;;;31.30;1.00;;;;;;5032155;28;34392;-76
2022/07/22 09:58:14;;;;;;;4.15;2.25;;;31.20;1.00;;;;;;5022387;27;36428;-77
2022/07/22 10:00:41;;;;;;;3.88;2.78;;;31.20;1.00;;;;;;5019438;27;34322;-77
2022/07/22 10:03:11;;;;;;;2.28;2.00;;;31.30;1.00;;;;;;5044884;27;34139;-80
2022/07/22 10:05:41;;;;;;;2.63;2.42;;;31.50;1.00;;;;;;5006711;28;34618;-77
2022/07/22 10:08:08;;;;;;;3.92;2.55;;;31.70;1.00;;;;;;5050088;28;36801;-78
2022/07/22 10:10:35;;;;;;;2.25;1.92;;;31.90;1.00;;;;;;5008099;28;34285;-77
2022/07/22 10:13:04;;;;;;;2.63;2.05;;;32.00;1.00;;;;;;5013846;28;34152;-77
2022/07/22 10:15:35;;;;;;;3.78;2.33;;;32.00;1.00;;;;;;5034338;28;34283;-77
2022/07/22 10:18:06;;;;;;;3.75;2.28;;;32.00;1.00;;;;;;5029240;28;34334;-77
2022/07/22 10:20:33;;;;;;;2.72;2.08;;;32.00;1.00;;;;;;5025523;28;34365;-77
2022/07/22 10:23:02;;;;;;;3.88;2.20;;;31.90;1.00;;;;;;5039620;27;34420;-77
2022/07/22 10:25:30;;;;;;;2.10;1.90;;;32.00;1.00;;;;;;5048028;27;34340;-78
2022/07/22 10:30:47;;;;;;;3.70;2.38;;;32.00;1.00;;;;;;5016005;27;34365;-77
2022/07/22 10:33:17;;;;;;;2.75;2.47;;;32.00;1.00;;;;;;5017821;28;34116;-77
2022/07/22 10:36:01;;;;;;;2.30;2.10;;;31.80;1.00;;;;;;5001587;28;34275;-77
2022/07/22 10:38:29;;;;;;;5.15;2.30;;;31.60;1.00;;;;;;5010641;28;35757;-79
2022/07/22 10:41:00;;;;;;;3.28;2.33;;;31.30;1.00;;;;;;5087668;27;35337;-77
2022/07/22 10:43:30;;;;;;;3.00;2.28;;;31.00;1.00;;;;;;5144638;27;35250;-78
2022/07/22 10:46:02;;;;;;;2.45;2.22;;;31.20;1.00;;;;;;5142536;27;34238;-76
2022/07/22 10:48:48;;;;;;;2.33;2.17;;;31.50;1.00;;;;;;5134898;27;35847;-77
2022/07/22 10:51:17;;;;;;;2.60;2.40;;;31.80;1.00;;;;;;5100368;27;34474;-78
2022/07/22 10:53:46;;;;;;;2.88;2.20;;;31.90;1.00;;;;;;5145426;27;34199;-76
2022/07/22 10:56:18;;;;;;;2.58;2.25;;;32.10;1.00;;;;;;5118705;27;34489;-78
2022/07/22 10:58:47;;;;;;;3.42;2.47;;;32.40;1.00;;;;;;5124221;27;35641;-77
2022/07/22 11:01:15;;;;;;;4.43;2.40;;;32.50;1.00;;;;;;5153889;27;34286;-77
2022/07/22 11:03:45;;;;;;;2.65;2.42;;;32.60;1.00;;;;;;5112008;27;34347;-79
2022/07/22 11:06:28;;;;;;;3.17;2.40;;;32.90;1.00;;;;;;5125575;27;34241;-78
2022/07/22 11:09:01;;;;;;;2.67;2.47;;;33.10;1.00;;;;;;5119113;27;36910;-77
2022/07/22 11:11:33;;;;;;;4.45;2.83;;;33.10;1.00;;;;;;5124050;27;34158;-78
2022/07/22 11:13:59;;;;;;;3.25;2.45;;;33.00;1.00;;;;;;5174161;27;34311;-77
2022/07/22 11:16:27;;;;;;;4.60;2.60;;;32.80;1.00;;;;;;5108884;27;34533;-77
2022/07/22 11:18:59;;;;;;;3.55;2.78;;;32.80;1.00;;;;;;5114729;27;35520;-80
2022/07/22 11:21:28;;;;;;;4.40;2.55;;;32.80;1.00;;;;;;5121633;27;34340;-77
2022/07/22 11:23:57;;;;;;;7.72;2.97;;;32.80;1.00;;;;;;5119104;27;34931;-79
2022/07/22 11:26:41;;;;;;;4.88;2.60;;;32.90;1.00;;;;;;5120984;27;34114;-78
2022/07/22 11:29:08;;;;;;;3.40;2.85;;;33.10;1.00;;;;;;5153280;27;35894;-79
2022/07/22 11:31:35;;;;;;;3.22;2.92;;;33.20;1.00;;;;;;5124409;27;35312;-79
2022/07/22 11:34:07;;;;;;;5.35;2.92;;;33.20;1.00;;;;;;5118103;27;34266;-78
2022/07/22 11:36:35;;;;;;;5.03;2.58;;;33.40;1.00;;;;;;5125147;27;34327;-79
2022/07/22 11:39:03;;;;;;;3.28;2.90;;;33.50;1.00;;;;;;5120213;27;36057;-79
2022/07/22 11:41:32;;;;;;;3.20;2.78;;;33.50;1.00;;;;;;5110762;27;34560;-77
2022/07/22 11:43:59;;;;;;;3.00;2.80;;;33.40;1.00;;;;;;5132669;27;34109;-77
2022/07/22 11:46:26;;;;;;;3.42;2.60;;;33.30;1.00;;;;;;5134037;27;34217;-77
2022/07/22 11:48:53;;;;;;;3.83;3.15;;;33.40;1.00;;;;;;5130926;27;35803;-77
2022/07/22 11:51:20;;;;;;;3.05;2.80;;;33.40;1.00;;;;;;5112498;27;34195;-78
2022/07/22 11:53:46;;;;;;;4.65;3.17;;;33.40;1.00;;;;;;5153211;27;34727;-78
2022/07/22 11:56:12;;;;;;;3.85;3.00;;;33.20;1.00;;;;;;5130347;27;34678;-76
2022/07/22 11:58:44;;;;;;;2.88;2.50;;;33.00;1.00;;;;;;5123815;27;36566;-77
2022/07/22 12:01:14;;;;;;;3.45;3.15;;;32.90;1.00;;;;;;5134762;27;34186;-78
2022/07/22 12:03:45;;;;;;;5.20;3.08;;;33.00;1.00;;;;;;5140273;27;34269;-77
2022/07/22 12:06:12;;;;;;;5.28;3.00;;;32.80;1.00;;;;;;5129636;27;34036;-77
2022/07/22 12:08:43;;;;;;;6.68;2.85;;;32.90;1.00;;;;;;5130534;27;35821;-78
2022/07/22 12:11:10;;;;;;;4.28;2.97;;;32.80;1.00;;;;;;5132859;27;34220;-76
2022/07/22 12:13:43;;;;;;;3.50;3.08;;;32.70;1.00;;;;;;5133613;27;34194;-77
2022/07/22 12:16:26;;;;;;;4.88;3.10;;;32.90;1.00;;;;;;5129073;27;34156;-77
2022/07/22 12:18:56;;;;;;;3.25;2.92;;;33.00;1.00;;;;;;5141601;27;36741;-77
2022/07/22 12:21:24;;;;;;;3.67;3.08;;;33.20;1.00;;;;;;5130247;27;34238;-78
2022/07/22 12:23:52;;;;;;;4.05;2.90;;;33.10;1.00;;;;;;5140259;27;35134;-77
2022/07/22 12:26:18;;;;;;;4.07;2.53;;;33.00;1.00;;;;;;5118454;27;34349;-77
2022/07/22 12:28:44;;;;;;;3.33;2.75;;;32.70;1.00;;;;;;5135065;27;34249;-77
2022/07/22 12:31:10;;;;;;;3.70;2.85;;;32.60;1.00;;;;;;5116270;27;34297;-76
2022/07/22 12:33:36;;;;;;;3.53;3.10;;;32.60;1.00;;;;;;5117690;27;34178;-77
2022/07/22 12:36:07;;;;;;;4.22;3.20;;;32.60;1.00;;;;;;5141252;27;34071;-76
2022/07/22 12:38:33;;;;;;;4.50;2.92;;;32.80;1.00;;;;;;5154692;27;35601;-77
2022/07/22 12:41:23;;;;;;;4.43;3.40;;;32.90;1.00;;;;;;5150610;27;34171;-76
2022/07/22 12:43:50;;;;;;;3.88;3.00;;;33.20;1.00;;;;;;5145785;27;34316;-77
2022/07/22 12:46:31;;;;;;;4.97;3.35;;;33.30;1.00;;;;;;5130919;27;33876;-77
2022/07/22 12:49:07;;;;;;;3.75;3.10;;;33.50;1.00;;;;;;5146374;27;35597;-78
2022/07/22 12:51:33;;;;;;;4.10;2.78;;;33.80;1.00;;;;;;5117616;27;34264;-78
2022/07/22 12:54:00;;;;;;;3.22;2.92;;;34.00;1.00;;;;;;5139878;27;34352;-79